Back to Top

Language: 

My Weather Underground Personal Weather Station Historical Data with Graphs...

Delerius Weather Station Historical Data
Daily Summary for September 3, 2017 Units:  English    Metric   Both
« Previous Day
Next Day »
Daily Weekly Monthly Yearly Custom
  High: Low: Average:
Temperature: 62.1 °F 45.7 °F 54.6 °F
Dew Point: 55.5 °F 43.5 °F 50.8 °F
Humidity: 96 % 72 % 87 %
Wind Speed: 13.0 mph 0.0 mph 5.7 mph
Wind Gust: 23.0 mph - -
Wind:- - SE
Pressure: 30.03 in 29.78 in -
Precipitation: 0.03 in    
Historical Graphs
 
 
Tabular Data for September 3, 2017
Time Temperature Dew Point Pressure Wind Wind Speed Wind Gust Humidity Rainfall Rate (Hourly) solar Conditions
00:04 49.8 °F 46.7 °F 30.03 in Calm     89 % 0.00 in 0 W/m2
00:09 49.6 °F 46.5 °F 30.03 in Calm     89 % 0.00 in 0 W/m2
00:14 49.5 °F 46.4 °F 30.03 in Calm     89 % 0.00 in 0 W/m2
00:19 49.3 °F 46.2 °F 30.02 in Calm     89 % 0.00 in 0 W/m2
00:24 49.1 °F 46.0 °F 30.02 in Calm     89 % 0.00 in 0 W/m2
00:29 48.9 °F 46.1 °F 30.02 in Calm     90 % 0.00 in 0 W/m2
00:34 48.9 °F 46.1 °F 30.02 in Calm     90 % 0.00 in 0 W/m2
00:39 48.7 °F 45.9 °F 30.02 in Calm     90 % 0.00 in 0 W/m2
00:44 48.7 °F 45.9 °F 30.02 in Calm     90 % 0.00 in 0 W/m2
00:49 48.6 °F 45.8 °F 30.02 in Calm     90 % 0.00 in 0 W/m2
00:54 48.4 °F 45.6 °F 30.02 in Calm     90 % 0.00 in 0 W/m2
00:59 48.2 °F 45.4 °F 30.01 in Calm     90 % 0.00 in 0 W/m2
01:04 48.0 °F 45.2 °F 30.01 in Calm     90 % 0.00 in 0 W/m2
01:09 48.0 °F 45.5 °F 30.01 in Calm     91 % 0.00 in 0 W/m2
01:14 47.8 °F 45.3 °F 30.01 in Calm     91 % 0.00 in 0 W/m2
01:19 47.8 °F 45.3 °F 30.01 in Calm     91 % 0.00 in 0 W/m2
01:24 47.8 °F 45.3 °F 30.00 in Calm     91 % 0.00 in 0 W/m2
01:29 47.8 °F 45.3 °F 30.00 in Calm     91 % 0.00 in 0 W/m2
01:34 47.7 °F 45.2 °F 30.00 in Calm     91 % 0.00 in 0 W/m2
01:39 47.5 °F 45.0 °F 30.00 in Calm   1.0 mph 91 % 0.00 in 0 W/m2
01:44 47.5 °F 45.0 °F 30.00 in Calm   1.0 mph 91 % 0.00 in 0 W/m2
01:49 47.5 °F 45.3 °F 30.00 in Calm     92 % 0.00 in 0 W/m2
01:54 47.5 °F 45.3 °F 30.00 in Calm     92 % 0.00 in 0 W/m2
01:59 47.5 °F 45.0 °F 30.00 in Calm     91 % 0.00 in 0 W/m2
02:04 47.3 °F 44.8 °F 29.99 in Calm     91 % 0.00 in 0 W/m2
02:09 47.1 °F 44.9 °F 29.99 in Calm     92 % 0.00 in 0 W/m2
02:14 47.1 °F 44.9 °F 29.99 in Calm     92 % 0.00 in 0 W/m2
02:19 47.1 °F 44.9 °F 29.99 in Calm     92 % 0.00 in 0 W/m2
02:24 46.9 °F 44.4 °F 29.99 in Calm     91 % 0.00 in 0 W/m2
02:29 46.8 °F 44.3 °F 29.99 in Calm     91 % 0.00 in 0 W/m2
02:34 46.8 °F 44.3 °F 29.98 in Calm     91 % 0.00 in 0 W/m2
02:39 46.6 °F 44.1 °F 29.98 in Calm     91 % 0.00 in 0 W/m2
02:44 46.2 °F 43.7 °F 29.98 in Calm     91 % 0.00 in 0 W/m2
02:49 46.2 °F 43.7 °F 29.98 in Calm     91 % 0.00 in 0 W/m2
02:54 46.2 °F 43.7 °F 29.98 in Calm     91 % 0.00 in 0 W/m2
02:59 46.0 °F 43.6 °F 29.98 in Calm     91 % 0.00 in 0 W/m2
03:04 46.0 °F 43.6 °F 29.98 in Calm     91 % 0.00 in 0 W/m2
03:09 45.9 °F 43.7 °F 29.98 in Calm     92 % 0.00 in 0 W/m2
03:14 45.7 °F 43.5 °F 29.97 in Calm     92 % 0.00 in 0 W/m2
03:19 45.7 °F 43.5 °F 29.97 in Calm     92 % 0.00 in 0 W/m2
03:24 45.7 °F 43.5 °F 29.97 in Calm   1.0 mph 92 % 0.00 in 0 W/m2
03:29 45.7 °F 43.5 °F 29.97 in Calm   1.0 mph 92 % 0.00 in 0 W/m2
03:34 45.7 °F 43.8 °F 29.97 in Calm     93 % 0.00 in 0 W/m2
03:39 45.7 °F 43.8 °F 29.96 in Calm     93 % 0.00 in 0 W/m2
03:44 45.7 °F 43.8 °F 29.96 in Calm     93 % 0.00 in 0 W/m2
03:49 45.9 °F 44.0 °F 29.96 in Calm     93 % 0.00 in 0 W/m2
03:54 45.9 °F 44.0 °F 29.96 in Calm     93 % 0.00 in 0 W/m2
03:59 46.0 °F 44.1 °F 29.96 in Calm     93 % 0.00 in 0 W/m2
04:05 46.0 °F 44.1 °F 29.95 in Calm     93 % 0.00 in 0 W/m2
04:10 46.0 °F 44.1 °F 29.95 in Calm     93 % 0.00 in 0 W/m2
04:16 46.0 °F 44.1 °F 29.95 in Calm   1.0 mph 93 % 0.00 in 0 W/m2
04:18 46.4 °F 44.8 °F 29.95 in Calm   1.0 mph 94 % 0.00 in 0 W/m2
04:21 46.6 °F 44.9 °F 29.95 in Calm   1.0 mph 94 % 0.00 in 0 W/m2
04:22 46.8 °F 45.1 °F 29.95 in Calm   1.0 mph 94 % 0.00 in 0 W/m2
04:23 46.9 °F 45.3 °F 29.95 in Calm     94 % 0.00 in 0 W/m2
04:26 46.9 °F 45.3 °F 29.95 in Calm   1.0 mph 94 % 0.00 in 0 W/m2
04:31 47.3 °F 45.7 °F 29.94 in Calm   1.0 mph 94 % 0.00 in 0 W/m2
04:36 47.5 °F 45.8 °F 29.94 in Calm     94 % 0.00 in 0 W/m2
04:41 47.5 °F 45.6 °F 29.94 in Calm     93 % 0.00 in 0 W/m2
04:46 47.7 °F 46.0 °F 29.94 in Calm   4.0 mph 94 % 0.00 in 0 W/m2
04:51 48.0 °F 46.4 °F 29.93 in SE 3.0 mph 8.0 mph 94 % 0.00 in 0 W/m2
04:56 48.4 °F 46.7 °F 29.94 in SE 5.0 mph 8.0 mph 94 % 0.00 in 0 W/m2
05:01 48.7 °F 46.8 °F 29.93 in SE 5.0 mph 8.0 mph 93 % 0.00 in 0 W/m2
05:06 48.9 °F 46.7 °F 29.93 in ESE 4.0 mph 7.0 mph 92 % 0.00 in 0 W/m2
05:11 49.3 °F 47.1 °F 29.93 in ESE 3.0 mph 6.0 mph 92 % 0.00 in 0 W/m2
05:16 49.3 °F 46.8 °F 29.93 in ESE 2.0 mph 6.0 mph 91 % 0.00 in 0 W/m2
05:21 49.5 °F 46.9 °F 29.93 in ESE 3.0 mph 8.0 mph 91 % 0.00 in 0 W/m2
05:26 49.6 °F 46.8 °F 29.93 in ESE 5.0 mph 9.0 mph 90 % 0.00 in 0 W/m2
05:31 49.6 °F 46.8 °F 29.93 in SE 6.0 mph 9.0 mph 90 % 0.00 in 0 W/m2
05:36 49.8 °F 47.0 °F 29.93 in SE 5.0 mph 8.0 mph 90 % 0.00 in 0 W/m2
05:41 50.0 °F 46.9 °F 29.93 in ESE 5.0 mph 7.0 mph 89 % 0.00 in 0 W/m2
05:46 49.8 °F 46.7 °F 29.93 in ESE 4.0 mph 6.0 mph 89 % 0.00 in 0 W/m2
05:51 49.8 °F 46.7 °F 29.93 in ESE 4.0 mph 6.0 mph 89 % 0.00 in 0 W/m2
05:56 49.6 °F 46.5 °F 29.92 in ESE 4.0 mph 6.0 mph 89 % 0.00 in 0 W/m2
06:01 49.6 °F 46.5 °F 29.92 in ESE 4.0 mph 6.0 mph 89 % 0.00 in 0 W/m2
06:06 49.6 °F 46.5 °F 29.92 in ESE 4.0 mph 6.0 mph 89 % 0.00 in 0 W/m2
06:11 49.6 °F 46.5 °F 29.92 in ESE 4.0 mph 7.0 mph 89 % 0.00 in 0 W/m2
06:16 49.6 °F 46.5 °F 29.92 in ESE 4.0 mph 7.0 mph 89 % 0.00 in 5 W/m2
06:21 49.6 °F 46.5 °F 29.92 in ESE 3.0 mph 6.0 mph 89 % 0.00 in 5 W/m2
06:26 49.5 °F 46.4 °F 29.92 in ESE 2.0 mph 6.0 mph 89 % 0.00 in 9 W/m2
06:31 49.5 °F 46.4 °F 29.92 in Calm   5.0 mph 89 % 0.00 in 12 W/m2
06:36 49.3 °F 46.2 °F 29.92 in Calm   2.0 mph 89 % 0.00 in 16 W/m2
06:41 49.3 °F 46.5 °F 29.91 in ESE 1.0 mph 5.0 mph 90 % 0.00 in 18 W/m2
06:46 49.3 °F 46.5 °F 29.91 in East 2.0 mph 6.0 mph 90 % 0.00 in 19 W/m2
06:51 49.3 °F 46.5 °F 29.91 in East 3.0 mph 6.0 mph 90 % 0.00 in 23 W/m2
06:56 49.3 °F 46.5 °F 29.91 in ESE 4.0 mph 7.0 mph 90 % 0.00 in 28 W/m2
07:01 49.5 °F 46.9 °F 29.91 in ESE 5.0 mph 7.0 mph 91 % 0.00 in 32 W/m2
07:06 49.5 °F 46.9 °F 29.91 in ESE 5.0 mph 7.0 mph 91 % 0.00 in 37 W/m2
07:11 49.6 °F 47.1 °F 29.91 in ESE 5.0 mph 8.0 mph 91 % 0.00 in 42 W/m2
07:16 49.8 °F 47.3 °F 29.91 in ESE 5.0 mph 8.0 mph 91 % 0.00 in 47 W/m2
07:21 49.8 °F 47.3 °F 29.91 in ESE 5.0 mph 8.0 mph 91 % 0.00 in 54 W/m2
07:26 50.2 °F 47.7 °F 29.91 in ESE 5.0 mph 8.0 mph 91 % 0.00 in 63 W/m2
07:31 50.4 °F 48.1 °F 29.91 in ESE 4.0 mph 7.0 mph 92 % 0.00 in 74 W/m2
07:36 50.5 °F 48.0 °F 29.91 in ESE 3.0 mph 6.0 mph 91 % 0.00 in 83 W/m2
07:41 50.7 °F 48.2 °F 29.90 in ESE 3.0 mph 6.0 mph 91 % 0.00 in 93 W/m2
07:47 50.9 °F 48.7 °F 29.90 in ESE 3.0 mph 6.0 mph 92 % 0.00 in 95 W/m2
07:52 51.1 °F 48.5 °F 29.90 in ESE 3.0 mph 6.0 mph 91 % 0.00 in 107 W/m2
07:57 51.3 °F 48.7 °F 29.90 in ESE 3.0 mph 7.0 mph 91 % 0.00 in 121 W/m2
08:02 51.6 °F 49.1 °F 29.90 in ESE 3.0 mph 7.0 mph 91 % 0.00 in 137 W/m2
08:07 52.0 °F 49.4 °F 29.90 in ESE 4.0 mph 7.0 mph 91 % 0.00 in 146 W/m2
08:12 52.2 °F 49.6 °F 29.90 in ESE 5.0 mph 9.0 mph 91 % 0.00 in 141 W/m2
08:17 52.5 °F 49.7 °F 29.90 in ESE 6.0 mph 9.0 mph 90 % 0.00 in 176 W/m2
08:22 52.9 °F 50.0 °F 29.90 in SE 5.0 mph 8.0 mph 90 % 0.00 in 193 W/m2
08:27 53.2 °F 50.1 °F 29.90 in SE 6.0 mph 10.0 mph 89 % 0.00 in 225 W/m2
08:32 53.8 °F 50.6 °F 29.90 in SE 7.0 mph 11.0 mph 89 % 0.00 in 178 W/m2
08:37 54.0 °F 50.5 °F 29.90 in SE 7.0 mph 11.0 mph 88 % 0.00 in 250 W/m2
08:42 54.3 °F 50.8 °F 29.89 in SE 7.0 mph 11.0 mph 88 % 0.00 in 260 W/m2
08:47 54.9 °F 51.4 °F 29.89 in SE 6.0 mph 10.0 mph 88 % 0.00 in 255 W/m2
08:52 55.0 °F 51.2 °F 29.89 in SE 6.0 mph 11.0 mph 87 % 0.00 in 192 W/m2
08:57 55.2 °F 51.1 °F 29.89 in SE 7.0 mph 11.0 mph 86 % 0.00 in 165 W/m2
09:02 55.4 °F 51.3 °F 29.89 in SE 7.0 mph 14.0 mph 86 % 0.00 in 158 W/m2
09:07 55.6 °F 51.5 °F 29.89 in SE 7.0 mph 14.0 mph 86 % 0.00 in 162 W/m2
09:12 55.6 °F 51.5 °F 29.89 in SE 7.0 mph 10.0 mph 86 % 0.00 in 176 W/m2
09:17 55.8 °F 51.6 °F 29.89 in SE 7.0 mph 10.0 mph 86 % 0.00 in 186 W/m2
09:22 55.8 °F 51.6 °F 29.88 in SE 7.0 mph 10.0 mph 86 % 0.00 in 211 W/m2
09:27 55.9 °F 51.8 °F 29.88 in SE 6.0 mph 10.0 mph 86 % 0.00 in 227 W/m2
09:32 56.1 °F 52.0 °F 29.88 in SE 6.0 mph 10.0 mph 86 % 0.00 in 223 W/m2
09:37 56.5 °F 52.3 °F 29.88 in SE 7.0 mph 13.0 mph 86 % 0.00 in 197 W/m2
09:42 56.7 °F 52.2 °F 29.88 in SE 8.0 mph 13.0 mph 85 % 0.00 in 183 W/m2
09:48 56.7 °F 52.2 °F 29.88 in SE 7.0 mph 12.0 mph 85 % 0.00 in 183 W/m2
09:53 56.8 °F 52.4 °F 29.88 in SE 7.0 mph 12.0 mph 85 % 0.00 in 183 W/m2
09:58 57.0 °F 52.6 °F 29.88 in SE 7.0 mph 11.0 mph 85 % 0.00 in 185 W/m2
10:03 57.0 °F 52.6 °F 29.87 in SE 8.0 mph 15.0 mph 85 % 0.00 in 181 W/m2
10:08 57.2 °F 52.7 °F 29.87 in SE 8.0 mph 15.0 mph 85 % 0.00 in 174 W/m2
10:13 57.4 °F 52.9 °F 29.87 in SE 7.0 mph 12.0 mph 85 % 0.00 in 165 W/m2
10:18 57.6 °F 52.8 °F 29.87 in SE 7.0 mph 12.0 mph 84 % 0.00 in 167 W/m2
10:23 57.6 °F 52.8 °F 29.87 in SE 8.0 mph 12.0 mph 84 % 0.00 in 171 W/m2
10:28 57.7 °F 52.9 °F 29.86 in SE 8.0 mph 12.0 mph 84 % 0.00 in 174 W/m2
10:33 57.7 °F 52.9 °F 29.86 in SE 9.0 mph 15.0 mph 84 % 0.00 in 186 W/m2
10:38 57.9 °F 53.1 °F 29.86 in SE 9.0 mph 15.0 mph 84 % 0.00 in 214 W/m2
10:43 58.1 °F 53.0 °F 29.86 in SE 10.0 mph 20.0 mph 83 % 0.00 in 239 W/m2
10:48 58.3 °F 53.1 °F 29.86 in SE 12.0 mph 20.0 mph 83 % 0.00 in 250 W/m2
10:53 58.3 °F 53.1 °F 29.86 in SSE 11.0 mph 19.0 mph 83 % 0.00 in 223 W/m2
10:58 58.5 °F 53.3 °F 29.86 in SSE 10.0 mph 19.0 mph 83 % 0.00 in 211 W/m2
11:03 58.6 °F 53.5 °F 29.86 in SE 10.0 mph 20.0 mph 83 % 0.00 in 206 W/m2
11:08 58.6 °F 53.5 °F 29.86 in SE 10.0 mph 20.0 mph 83 % 0.00 in 199 W/m2
11:13 58.6 °F 53.5 °F 29.86 in SSE 10.0 mph 18.0 mph 83 % 0.00 in 199 W/m2
11:18 58.8 °F 53.7 °F 29.85 in SSE 10.0 mph 18.0 mph 83 % 0.00 in 214 W/m2
11:23 59.0 °F 53.8 °F 29.85 in SSE 8.0 mph 18.0 mph 83 % 0.00 in 236 W/m2
11:28 59.2 °F 53.7 °F 29.85 in SSE 9.0 mph 16.0 mph 82 % 0.00 in 216 W/m2
11:30 59.2 °F 54.0 °F 29.85 in SE 9.0 mph 16.0 mph 83 % 0.00 in 250 W/m2
11:35 59.4 °F 53.9 °F 29.85 in SE 9.0 mph 15.0 mph 82 % 0.00 in 250 W/m2
11:40 59.5 °F 54.4 °F 29.85 in SSE 8.0 mph 14.0 mph 83 % 0.00 in 246 W/m2
11:45 59.7 °F 54.2 °F 29.84 in SE 8.0 mph 15.0 mph 82 % 0.00 in 276 W/m2
11:50 59.9 °F 54.1 °F 29.84 in SE 9.0 mph 15.0 mph 81 % 0.00 in 271 W/m2
11:55 60.3 °F 54.4 °F 29.84 in SE 9.0 mph 15.0 mph 81 % 0.00 in 255 W/m2
12:00 60.3 °F 54.1 °F 29.84 in SE 9.0 mph 16.0 mph 80 % 0.00 in 250 W/m2
12:06 60.4 °F 53.9 °F 29.84 in SE 10.0 mph 19.0 mph 79 % 0.00 in 251 W/m2
12:11 60.4 °F 53.9 °F 29.84 in SSE 10.0 mph 19.0 mph 79 % 0.00 in 265 W/m2
12:16 60.6 °F 53.7 °F 29.84 in SE 11.0 mph 19.0 mph 78 % 0.00 in 236 W/m2
12:21 60.6 °F 53.4 °F 29.84 in SE 13.0 mph 21.0 mph 77 % 0.00 in 237 W/m2
12:26 60.6 °F 53.4 °F 29.84 in SE 13.0 mph 22.0 mph 77 % 0.00 in 241 W/m2
12:31 60.6 °F 53.7 °F 29.84 in SSE 11.0 mph 22.0 mph 78 % 0.00 in 237 W/m2
12:36 61.0 °F 54.1 °F 29.84 in SSE 10.0 mph 18.0 mph 78 % 0.00 in 225 W/m2
12:41 61.0 °F 53.7 °F 29.84 in SE 11.0 mph 18.0 mph 77 % 0.00 in 211 W/m2
12:46 61.2 °F 53.9 °F 29.84 in SE 11.0 mph 19.0 mph 77 % 0.00 in 178 W/m2
12:51 61.2 °F 54.2 °F 29.83 in SE 10.0 mph 19.0 mph 78 % 0.00 in 236 W/m2
12:56 61.3 °F 54.1 °F 29.83 in SE 9.0 mph 14.0 mph 77 % 0.00 in 230 W/m2
13:01 61.3 °F 53.7 °F 29.83 in SE 11.0 mph 19.0 mph 76 % 0.00 in 181 W/m2
13:06 61.3 °F 53.7 °F 29.83 in SSE 12.0 mph 20.0 mph 76 % 0.00 in 160 W/m2
13:11 61.3 °F 53.7 °F 29.83 in SSE 11.0 mph 20.0 mph 76 % 0.00 in 100 W/m2
13:16 61.3 °F 54.1 °F 29.83 in SSE 10.0 mph 19.0 mph 77 % 0.00 in 100 W/m2
13:21 61.3 °F 53.7 °F 29.82 in SE 11.0 mph 22.0 mph 76 % 0.00 in 81 W/m2
13:26 61.2 °F 53.5 °F 29.82 in SE 11.0 mph 22.0 mph 76 % 0.00 in 100 W/m2
13:31 61.2 °F 53.9 °F 29.82 in SE 9.0 mph 15.0 mph 77 % 0.00 in 46 W/m2
13:36 61.2 °F 53.9 °F 29.82 in SSE 9.0 mph 23.0 mph 77 % 0.00 in 134 W/m2
13:41 61.3 °F 54.1 °F 29.82 in SSE 10.0 mph 23.0 mph 77 % 0.00 in 216 W/m2
13:46 61.5 °F 53.9 °F 29.82 in SE 10.0 mph 19.0 mph 76 % 0.00 in 105 W/m2
13:51 61.5 °F 53.9 °F 29.82 in SE 9.0 mph 19.0 mph 76 % 0.00 in 83 W/m2
13:56 61.5 °F 53.5 °F 29.82 in SSE 10.0 mph 18.0 mph 75 % 0.00 in 62 W/m2
14:01 61.5 °F 53.9 °F 29.82 in SSE 10.0 mph 18.0 mph 76 % 0.00 in 81 W/m2
14:06 61.3 °F 53.7 °F 29.82 in SSE 10.0 mph 16.0 mph 76 % 0.00 in 163 W/m2
14:11 61.3 °F 53.7 °F 29.82 in SSE 10.0 mph 16.0 mph 76 % 0.00 in 142 W/m2
14:16 61.5 °F 53.5 °F 29.82 in SSE 9.0 mph 15.0 mph 75 % 0.00 in 113 W/m2
14:21 61.5 °F 53.2 °F 29.81 in South 9.0 mph 22.0 mph 74 % 0.00 in 125 W/m2
14:26 61.7 °F 53.0 °F 29.81 in South 10.0 mph 22.0 mph 73 % 0.00 in 288 W/m2
14:31 62.1 °F 53.3 °F 29.81 in South 9.0 mph 18.0 mph 73 % 0.00 in 97 W/m2
14:36 62.1 °F 52.9 °F 29.81 in SSE 9.0 mph 15.0 mph 72 % 0.00 in 56 W/m2
14:41 61.9 °F 52.8 °F 29.81 in SSE 12.0 mph 19.0 mph 72 % 0.00 in 53 W/m2
14:46 61.7 °F 52.6 °F 29.81 in SSE 12.0 mph 19.0 mph 72 % 0.00 in 62 W/m2
14:51 61.5 °F 52.4 °F 29.81 in SSE 12.0 mph 23.0 mph 72 % 0.00 in 70 W/m2
14:56 61.5 °F 52.4 °F 29.81 in SSE 11.0 mph 23.0 mph 72 % 0.00 in 95 W/m2
15:01 61.3 °F 52.2 °F 29.81 in South 9.0 mph 21.0 mph 72 % 0.00 in 105 W/m2
15:05 61.3 °F 52.2 °F 29.81 in South 10.0 mph 21.0 mph 72 % 0.00 in 95 W/m2
15:10 61.3 °F 52.6 °F 29.81 in SSE 12.0 mph 21.0 mph 73 % 0.00 in 81 W/m2
15:15 61.3 °F 52.6 °F 29.80 in SSE 11.0 mph 20.0 mph 73 % 0.00 in 90 W/m2
15:20 61.3 °F 52.6 °F 29.80 in South 10.0 mph 21.0 mph 73 % 0.00 in 100 W/m2
15:25 61.2 °F 52.8 °F 29.80 in SSE 10.0 mph 21.0 mph 74 % 0.00 in 79 W/m2
15:30 61.2 °F 52.8 °F 29.80 in SSE 10.0 mph 18.0 mph 74 % 0.00 in 74 W/m2
15:35 61.0 °F 53.0 °F 29.80 in SSE 8.0 mph 15.0 mph 75 % 0.00 in 100 W/m2
15:40 61.0 °F 53.0 °F 29.80 in SSE 8.0 mph 15.0 mph 75 % 0.00 in 86 W/m2
15:45 60.8 °F 53.2 °F 29.80 in South 9.0 mph 21.0 mph 76 % 0.00 in 100 W/m2
15:47 60.6 °F 53.4 °F 29.80 in South 9.0 mph 21.0 mph 77 % 0.00 in 104 W/m2
15:52 60.6 °F 53.4 °F 29.80 in South 9.0 mph 21.0 mph 77 % 0.00 in 114 W/m2
15:57 60.4 °F 53.5 °F 29.80 in South 10.0 mph 20.0 mph 78 % 0.00 in 79 W/m2
16:02 60.4 °F 53.9 °F 29.80 in South 11.0 mph 20.0 mph 79 % 0.00 in 44 W/m2
16:07 60.1 °F 53.9 °F 29.80 in South 10.0 mph 19.0 mph 80 % 0.00 in 86 W/m2
16:12 60.1 °F 54.2 °F 29.80 in SSE 9.0 mph 19.0 mph 81 % 0.00 in 134 W/m2
16:17 60.1 °F 54.2 °F 29.80 in SSE 7.0 mph 16.0 mph 81 % 0.00 in 146 W/m2
16:22 60.1 °F 53.9 °F 29.79 in SSE 7.0 mph 16.0 mph 80 % 0.00 in 148 W/m2
16:27 60.3 °F 54.1 °F 29.79 in SSE 8.0 mph 16.0 mph 80 % 0.00 in 146 W/m2
16:32 60.3 °F 54.1 °F 29.79 in SSE 10.0 mph 19.0 mph 80 % 0.00 in 146 W/m2
16:37 60.3 °F 54.1 °F 29.79 in SSE 11.0 mph 19.0 mph 80 % 0.00 in 155 W/m2
16:42 60.3 °F 54.4 °F 29.79 in SSE 10.0 mph 19.0 mph 81 % 0.00 in 151 W/m2
16:47 60.3 °F 54.4 °F 29.79 in SSE 8.0 mph 13.0 mph 81 % 0.00 in 135 W/m2
16:52 60.3 °F 54.7 °F 29.78 in SSE 8.0 mph 15.0 mph 82 % 0.00 in 113 W/m2
16:57 60.1 °F 54.6 °F 29.78 in SSE 8.0 mph 15.0 mph 82 % 0.00 in 104 W/m2
17:02 59.9 °F 54.7 °F 29.78 in SSE 8.0 mph 13.0 mph 83 % 0.00 in 98 W/m2
17:07 59.7 °F 54.9 °F 29.78 in SE 7.0 mph 13.0 mph 84 % 0.00 in 97 W/m2
17:12 59.5 °F 54.7 °F 29.78 in SE 8.0 mph 12.0 mph 84 % 0.00 in 104 W/m2
17:17 59.4 °F 54.8 °F 29.78 in SE 8.0 mph 13.0 mph 85 % 0.00 in 109 W/m2
17:22 59.5 °F 55.3 °F 29.78 in SE 6.0 mph 13.0 mph 86 % 0.00 in 98 W/m2
17:27 59.5 °F 55.3 °F 29.78 in SE 5.0 mph 9.0 mph 86 % 0.00 in 81 W/m2
17:32 59.4 °F 55.5 °F 29.78 in SE 6.0 mph 11.0 mph 87 % 0.00 in 76 W/m2
17:37 59.4 °F 55.5 °F 29.78 in SE 7.0 mph 11.0 mph 87 % 0.00 in 84 W/m2
17:42 59.2 °F 55.3 °F 29.78 in SE 7.0 mph 11.0 mph 87 % 0.00 in 90 W/m2
17:47 59.2 °F 55.3 °F 29.78 in SE 7.0 mph 11.0 mph 87 % 0.00 in 86 W/m2
17:53 59.2 °F 55.3 °F 29.78 in SE 6.0 mph 11.0 mph 87 % 0.00 in 77 W/m2
17:58 59.2 °F 55.3 °F 29.78 in SSE 7.0 mph 11.0 mph 87 % 0.00 in 69 W/m2
18:03 59.0 °F 54.8 °F 29.78 in SSE 8.0 mph 16.0 mph 86 % 0.00 in 56 W/m2
18:08 58.8 °F 54.3 °F 29.78 in SSE 8.0 mph 16.0 mph 85 % 0.00 in 49 W/m2
18:13 58.6 °F 54.1 °F 29.78 in SSE 8.0 mph 12.0 mph 85 % 0.00 in 46 W/m2
18:17 58.6 °F 54.1 °F 29.78 in SSE 8.0 mph 12.0 mph 85 % 0.00 in 44 W/m2
18:22 58.5 °F 54.0 °F 29.78 in SSE 7.0 mph 13.0 mph 85 % 0.00 in 44 W/m2
18:27 58.3 °F 53.8 °F 29.78 in SSE 8.0 mph 13.0 mph 85 % 0.00 in 42 W/m2
18:32 58.3 °F 53.8 °F 29.78 in SE 9.0 mph 12.0 mph 85 % 0.00 in 39 W/m2
18:37 57.9 °F 53.8 °F 29.78 in SE 8.0 mph 13.0 mph 86 % 0.00 in 39 W/m2
18:42 57.7 °F 53.6 °F 29.78 in SSE 7.0 mph 13.0 mph 86 % 0.00 in 32 W/m2
18:48 57.7 °F 53.9 °F 29.78 in SSE 7.0 mph 11.0 mph 87 % 0.00 in 25 W/m2
18:53 57.6 °F 53.7 °F 29.78 in SSE 6.0 mph 11.0 mph 87 % 0.00 in 19 W/m2
18:58 57.6 °F 53.7 °F 29.78 in SSE 5.0 mph 9.0 mph 87 % 0.00 in 18 W/m2
19:03 57.4 °F 53.5 °F 29.78 in SSE 6.0 mph 11.0 mph 87 % 0.00 in 21 W/m2
19:08 57.4 °F 53.9 °F 29.78 in SSE 7.0 mph 11.0 mph 88 % 0.00 in 23 W/m2
19:13 57.4 °F 53.9 °F 29.78 in SSE 6.0 mph 12.0 mph 88 % 0.00 in 18 W/m2
19:18 57.2 °F 53.7 °F 29.78 in SSE 6.0 mph 12.0 mph 88 % 0.00 in 14 W/m2
19:23 57.0 °F 53.8 °F 29.78 in SSE 5.0 mph 9.0 mph 89 % 0.00 in 14 W/m2
19:28 57.0 °F 53.8 °F 29.78 in SSE 5.0 mph 10.0 mph 89 % 0.00 in 12 W/m2
19:33 56.8 °F 53.9 °F 29.78 in SSE 6.0 mph 10.0 mph 90 % 0.00 in 7 W/m2
19:38 56.8 °F 53.9 °F 29.78 in SSE 5.0 mph 9.0 mph 90 % 0.00 in 7 W/m2
19:43 56.7 °F 54.1 °F 29.78 in SSE 5.0 mph 9.0 mph 91 % 0.01 in 0 W/m2
19:48 56.5 °F 53.9 °F 29.78 in SSE 6.0 mph 9.0 mph 91 % 0.01 in 0 W/m2
19:53 56.5 °F 54.2 °F 29.78 in SE 5.0 mph 9.0 mph 92 % 0.01 in 0 W/m2
19:58 56.3 °F 54.0 °F 29.78 in SE 5.0 mph 9.0 mph 92 % 0.01 in 0 W/m2
20:03 56.1 °F 53.8 °F 29.78 in SE 5.0 mph 8.0 mph 92 % 0.01 in 0 W/m2
20:08 56.1 °F 53.8 °F 29.78 in SE 5.0 mph 10.0 mph 92 % 0.01 in 0 W/m2
20:13 55.9 °F 53.9 °F 29.79 in SE 5.0 mph 10.0 mph 93 % 0.01 in 0 W/m2
20:18 55.9 °F 53.9 °F 29.79 in SE 5.0 mph 9.0 mph 93 % 0.01 in 0 W/m2
20:23 55.9 °F 53.9 °F 29.79 in SE 5.0 mph 11.0 mph 93 % 0.01 in 0 W/m2
20:28 55.8 °F 53.8 °F 29.79 in SSE 6.0 mph 11.0 mph 93 % 0.01 in 0 W/m2
20:33 55.8 °F 53.8 °F 29.79 in SE 6.0 mph 11.0 mph 93 % 0.01 in 0 W/m2
20:38 55.8 °F 53.8 °F 29.79 in SE 7.0 mph 11.0 mph 93 % 0.01 in 0 W/m2
20:43 55.6 °F 53.6 °F 29.79 in SE 8.0 mph 14.0 mph 93 % 0.00 in 0 W/m2
20:48 55.4 °F 53.4 °F 29.79 in SE 8.0 mph 14.0 mph 93 % 0.00 in 0 W/m2
20:53 55.4 °F 53.4 °F 29.79 in SE 7.0 mph 12.0 mph 93 % 0.00 in 0 W/m2
20:58 55.2 °F 53.2 °F 29.79 in SE 7.0 mph 12.0 mph 93 % 0.00 in 0 W/m2
20:59 55.2 °F 53.2 °F 29.79 in SE 7.0 mph 12.0 mph 93 % 0.00 in 0 W/m2
21:04 55.2 °F 53.2 °F 29.79 in SE 7.0 mph 12.0 mph 93 % 0.00 in 0 W/m2
21:09 55.2 °F 53.2 °F 29.79 in SE 7.0 mph 12.0 mph 93 % 0.00 in 0 W/m2
21:14 55.2 °F 53.5 °F 29.79 in SE 8.0 mph 12.0 mph 94 % 0.00 in 0 W/m2
21:19 55.2 °F 53.5 °F 29.79 in SE 8.0 mph 13.0 mph 94 % 0.01 in 0 W/m2
21:24 55.0 °F 53.3 °F 29.80 in SE 8.0 mph 13.0 mph 94 % 0.01 in 0 W/m2
21:29 55.0 °F 53.3 °F 29.80 in SE 6.0 mph 13.0 mph 94 % 0.01 in 0 W/m2
21:34 55.0 °F 53.3 °F 29.80 in SE 6.0 mph 12.0 mph 94 % 0.01 in 0 W/m2
21:39 55.0 °F 53.3 °F 29.80 in SE 5.0 mph 10.0 mph 94 % 0.01 in 0 W/m2
21:44 55.0 °F 53.3 °F 29.80 in SE 5.0 mph 10.0 mph 94 % 0.01 in 0 W/m2
21:49 55.0 °F 53.3 °F 29.80 in SE 6.0 mph 12.0 mph 94 % 0.01 in 0 W/m2
21:54 55.0 °F 53.3 °F 29.80 in SE 7.0 mph 12.0 mph 94 % 0.01 in 0 W/m2
21:59 54.9 °F 53.2 °F 29.80 in SSE 7.0 mph 13.0 mph 94 % 0.01 in 0 W/m2
22:04 54.9 °F 53.5 °F 29.79 in SE 7.0 mph 13.0 mph 95 % 0.01 in 0 W/m2
22:10 54.9 °F 53.5 °F 29.80 in SE 6.0 mph 12.0 mph 95 % 0.01 in 0 W/m2
22:14 54.9 °F 53.5 °F 29.80 in SE 5.0 mph 12.0 mph 95 % 0.01 in 0 W/m2
22:20 54.9 °F 53.5 °F 29.80 in SE 5.0 mph 9.0 mph 95 % 0.00 in 0 W/m2
22:25 54.9 °F 53.5 °F 29.79 in SE 7.0 mph 13.0 mph 95 % 0.00 in 0 W/m2
22:30 54.9 °F 53.5 °F 29.79 in SE 7.0 mph 13.0 mph 95 % 0.01 in 0 W/m2
22:35 54.7 °F 53.3 °F 29.79 in SE 6.0 mph 11.0 mph 95 % 0.01 in 0 W/m2
22:40 54.7 °F 53.3 °F 29.80 in SE 7.0 mph 11.0 mph 95 % 0.01 in 0 W/m2
22:45 54.7 °F 53.3 °F 29.80 in SE 7.0 mph 12.0 mph 95 % 0.01 in 0 W/m2
22:50 54.7 °F 53.3 °F 29.80 in SE 7.0 mph 12.0 mph 95 % 0.01 in 0 W/m2
22:55 54.7 °F 53.3 °F 29.80 in SE 7.0 mph 12.0 mph 95 % 0.01 in 0 W/m2
22:57 54.5 °F 53.1 °F 29.80 in SE 7.0 mph 12.0 mph 95 % 0.01 in 0 W/m2
23:01 54.5 °F 53.1 °F 29.80 in SE 8.0 mph 13.0 mph 95 % 0.02 in 0 W/m2
23:07 54.5 °F 53.1 °F 29.80 in SE 7.0 mph 13.0 mph 95 % 0.02 in 0 W/m2
23:11 54.5 °F 53.1 °F 29.79 in SE 7.0 mph 12.0 mph 95 % 0.02 in 0 W/m2
23:16 54.5 °F 53.1 °F 29.79 in SE 6.0 mph 10.0 mph 95 % 0.02 in 0 W/m2
23:21 54.5 °F 53.4 °F 29.79 in SE 5.0 mph 9.0 mph 96 % 0.02 in 0 W/m2
23:26 54.5 °F 53.4 °F 29.80 in SE 5.0 mph 9.0 mph 96 % 0.01 in 0 W/m2
23:31 54.5 °F 53.4 °F 29.79 in SE 6.0 mph 10.0 mph 96 % 0.01 in 0 W/m2
23:36 54.5 °F 53.4 °F 29.79 in SE 7.0 mph 10.0 mph 96 % 0.01 in 0 W/m2
23:41 54.5 °F 53.4 °F 29.79 in SE 6.0 mph 11.0 mph 96 % 0.01 in 0 W/m2
23:46 54.5 °F 53.4 °F 29.79 in SE 7.0 mph 11.0 mph 96 % 0.01 in 0 W/m2
23:51 54.5 °F 53.4 °F 29.79 in ESE 6.0 mph 11.0 mph 96 % 0.01 in 0 W/m2
23:56 54.5 °F 53.4 °F 29.79 in ESE 5.0 mph 10.0 mph 96 % 0.01 in 0 W/m2
Delerius-Weather
Compliments of Weather Underground - 2.25 mb

Data updates at regular intervals.